Time;durP1;ratioP1;P1;durP2;ratioP2;P2;SDS_P1;SDS_P2;PMS_P1;PMS_P2;Temp;Humidity;BMP_temperature;BMP_pressure;BME280_temperature;BME280_humidity;BME280_pressure;Samples;Min_cycle;Max_cycle;Signal;HPM_P1;HPM_P2
2022/01/01 00:02:14;;;;;;;;;;;14.70;99.90;;;;;;4994862;28;19941;-70
2022/01/01 00:04:42;;;;;;;;;;;13.70;99.90;;;;;;4985238;28;19932;-70
2022/01/01 00:07:10;;;;;;;;;;;13.90;99.90;;;;;;4984575;28;19948;-70
2022/01/01 00:09:38;;;;;;;;;;;14.40;99.90;;;;;;4986596;28;20370;-68
2022/01/01 00:12:05;;;;;;;;;;;13.80;99.90;;;;;;4995216;28;20520;-68
2022/01/01 00:14:32;;;;;;;;;;;13.70;99.90;;;;;;4985514;28;19932;-70
2022/01/01 00:16:59;;;;;;;;;;;13.70;99.90;;;;;;4995289;28;20021;-69
2022/01/01 00:19:26;;;;;;;;;;;13.70;99.90;;;;;;4985620;28;20014;-69
2022/01/01 00:21:52;;;;;;;;;;;14.00;99.90;;;;;;4993194;28;19925;-69
2022/01/01 00:24:20;;;;;;;;;;;13.70;99.90;;;;;;4993417;28;20468;-70
2022/01/01 00:26:47;;;;;;;;;;;13.70;99.90;;;;;;4988973;28;19925;-70
2022/01/01 00:29:14;;;;;;;;;;;13.70;99.90;;;;;;4985179;28;19929;-70
2022/01/01 00:31:40;;;;;;;;;;;13.70;99.90;;;;;;4988261;28;19932;-70
2022/01/01 00:34:07;;;;;;;;;;;13.70;99.90;;;;;;4989694;28;19925;-70
2022/01/01 00:36:34;;;;;;;;;;;13.80;99.90;;;;;;4985999;28;19925;-70
2022/01/01 00:39:01;;;;;;;;;;;13.80;99.90;;;;;;4985681;28;19933;-70
2022/01/01 00:41:29;;;;;;;;;;;13.80;99.90;;;;;;4996287;28;20403;-70
2022/01/01 00:43:55;;;;;;;;;;;13.80;99.90;;;;;;4988040;28;19925;-69
2022/01/01 00:46:22;;;;;;;;;;;13.80;99.90;;;;;;4987340;28;19925;-71
2022/01/01 00:48:53;;;;;;;;;;;13.80;99.90;;;;;;4991104;28;19933;-70
2022/01/01 00:51:20;;;;;;;;;;;13.80;99.90;;;;;;4994924;28;20390;-70
2022/01/01 00:53:46;;;;;;;;;;;13.80;99.90;;;;;;4991068;28;19926;-70
2022/01/01 00:56:13;;;;;;;;;;;13.80;99.90;;;;;;4988840;28;19925;-70
2022/01/01 00:58:41;;;;;;;;;;;13.80;99.90;;;;;;4989522;28;19929;-70
2022/01/01 01:01:08;;;;;;;;;;;13.90;99.90;;;;;;5006746;28;20190;-70
2022/01/01 01:03:35;;;;;;;;;;;13.80;99.90;;;;;;4994526;28;19994;-70
2022/01/01 01:06:02;;;;;;;;;;;13.80;99.90;;;;;;4993478;28;19926;-70
2022/01/01 01:08:30;;;;;;;;;;;13.80;99.90;;;;;;4989559;28;20394;-69
2022/01/01 01:10:58;;;;;;;;;;;13.80;99.90;;;;;;4994931;28;19932;-71
2022/01/01 01:13:27;;;;;;;;;;;13.80;99.90;;;;;;4998380;28;19925;-71
2022/01/01 01:15:55;;;;;;;;;;;13.80;99.90;;;;;;4990552;28;20391;-70
2022/01/01 01:18:22;;;;;;;;;;;13.80;99.90;;;;;;4992634;28;19922;-70
2022/01/01 01:20:49;;;;;;;;;;;13.80;99.90;;;;;;4991940;28;19928;-70
2022/01/01 01:23:15;;;;;;;;;;;13.80;99.90;;;;;;4990181;28;19932;-70
2022/01/01 01:25:42;;;;;;;;;;;13.70;99.90;;;;;;4989277;28;19925;-70
2022/01/01 01:28:10;;;;;;;;;;;13.80;99.90;;;;;;4989259;28;21049;-70
2022/01/01 01:30:38;;;;;;;;;;;13.80;99.90;;;;;;4997653;28;19929;-70
2022/01/01 01:33:06;;;;;;;;;;;13.80;99.90;;;;;;4989955;28;19922;-70
2022/01/01 01:35:33;;;;;;;;;;;13.80;99.90;;;;;;4989683;28;19933;-70
2022/01/01 01:38:00;;;;;;;;;;;13.90;99.90;;;;;;4992608;28;19933;-70
2022/01/01 01:40:27;;;;;;;;;;;13.80;99.90;;;;;;4996716;28;20036;-70
2022/01/01 01:42:54;;;;;;;;;;;13.80;99.90;;;;;;4999164;28;19932;-70
2022/01/01 01:45:23;;;;;;;;;;;13.80;99.90;;;;;;4989314;28;19932;-70
2022/01/01 01:47:50;;;;;;;;;;;13.40;99.90;;;;;;4990191;28;20015;-70
2022/01/01 01:50:19;;;;;;;;;;;13.80;99.90;;;;;;4995526;28;20219;-70
2022/01/01 01:52:48;;;;;;;;;;;13.80;99.90;;;;;;4993820;28;19925;-70
2022/01/01 01:55:14;;;;;;;;;;;13.80;99.90;;;;;;4988429;28;19929;-70
2022/01/01 01:57:42;;;;;;;;;;;13.80;99.90;;;;;;4988782;28;19921;-70
2022/01/01 02:00:21;;;;;;;;;;;13.80;99.90;;;;;;4997284;28;19926;-70
2022/01/01 02:02:49;;;;;;;;;;;13.80;99.90;;;;;;4987358;28;19926;-70
2022/01/01 02:05:15;;;;;;;;;;;13.80;99.90;;;;;;4988183;28;19921;-71
2022/01/01 02:07:44;;;;;;;;;;;13.80;99.90;;;;;;4987539;28;19925;-70
2022/01/01 02:10:11;;;;;;;;;;;13.80;99.90;;;;;;4989388;28;19926;-70
2022/01/01 02:12:39;;;;;;;;;;;13.70;99.90;;;;;;4996494;28;19936;-70
2022/01/01 02:15:13;;;;;;;;;;;13.70;99.90;;;;;;4989710;28;20019;-70
2022/01/01 02:17:39;;;;;;;;;;;13.80;99.90;;;;;;4990778;28;20012;-70
2022/01/01 02:20:10;;;;;;;;;;;13.70;99.90;;;;;;4987878;28;20857;-70
2022/01/01 02:22:40;;;;;;;;;;;13.70;99.90;;;;;;5001012;28;20005;-70
2022/01/01 02:25:07;;;;;;;;;;;13.50;99.90;;;;;;4994037;28;19929;-70
2022/01/01 02:27:36;;;;;;;;;;;13.70;99.90;;;;;;4995087;28;20363;-70
2022/01/01 02:30:04;;;;;;;;;;;13.70;99.90;;;;;;4986113;28;19925;-70
2022/01/01 02:32:31;;;;;;;;;;;13.70;99.90;;;;;;4989050;28;20286;-71
2022/01/01 02:34:58;;;;;;;;;;;13.70;99.90;;;;;;4997071;28;19929;-71
2022/01/01 02:37:26;;;;;;;;;;;13.70;99.90;;;;;;4991310;28;20398;-71
2022/01/01 02:39:53;;;;;;;;;;;13.70;99.90;;;;;;4974660;28;19933;-71
2022/01/01 02:42:21;;;;;;;;;;;13.70;99.90;;;;;;4995102;28;19930;-69
2022/01/01 02:44:50;;;;;;;;;;;13.70;99.90;;;;;;4986413;28;19929;-70
2022/01/01 02:47:16;;;;;;;;;;;13.70;99.90;;;;;;4994540;28;19976;-70
2022/01/01 02:49:43;;;;;;;;;;;13.70;99.90;;;;;;4990017;28;19933;-70
2022/01/01 02:52:10;;;;;;;;;;;13.70;99.90;;;;;;4987768;28;19930;-70
2022/01/01 02:54:38;;;;;;;;;;;13.70;99.90;;;;;;4985848;28;19932;-70
2022/01/01 02:57:05;;;;;;;;;;;13.70;99.90;;;;;;4971584;28;20413;-71
2022/01/01 02:59:31;;;;;;;;;;;13.90;99.90;;;;;;4989723;28;19933;-70
2022/01/01 03:01:58;;;;;;;;;;;13.70;99.90;;;;;;4988400;28;19925;-71
2022/01/01 03:04:25;;;;;;;;;;;13.70;99.90;;;;;;4996006;28;19928;-70
2022/01/01 03:06:55;;;;;;;;;;;13.70;99.90;;;;;;4996815;28;20402;-70
2022/01/01 03:09:22;;;;;;;;;;;13.70;99.90;;;;;;4987513;28;20394;-69
2022/01/01 03:11:51;;;;;;;;;;;13.70;99.90;;;;;;4989295;28;19933;-69
2022/01/01 03:14:18;;;;;;;;;;;13.70;99.90;;;;;;4996846;28;19929;-70
2022/01/01 03:16:44;;;;;;;;;;;13.70;99.90;;;;;;4994986;28;20436;-69
2022/01/01 03:19:11;;;;;;;;;;;13.70;99.90;;;;;;4985460;28;19925;-69
2022/01/01 03:21:38;;;;;;;;;;;13.70;99.90;;;;;;4985223;28;20410;-69
2022/01/01 03:24:05;;;;;;;;;;;13.70;99.90;;;;;;4987239;28;19929;-70
2022/01/01 03:26:31;;;;;;;;;;;13.70;99.90;;;;;;4973275;28;19926;-70
2022/01/01 03:28:59;;;;;;;;;;;13.70;99.90;;;;;;4988139;28;20326;-70
2022/01/01 03:31:26;;;;;;;;;;;13.70;99.90;;;;;;4992085;28;19930;-71
2022/01/01 03:33:53;;;;;;;;;;;14.30;99.90;;;;;;4985854;28;20291;-71
2022/01/01 03:36:19;;;;;;;;;;;13.70;99.90;;;;;;4988081;28;19921;-71
2022/01/01 03:38:46;;;;;;;;;;;13.70;99.90;;;;;;4986847;28;19925;-71
2022/01/01 03:41:13;;;;;;;;;;;13.70;99.90;;;;;;4990063;28;20294;-71
2022/01/01 03:43:39;;;;;;;;;;;13.60;99.90;;;;;;4998024;28;19921;-71
2022/01/01 03:46:07;;;;;;;;;;;13.60;99.90;;;;;;5003796;28;19925;-71
2022/01/01 03:48:34;;;;;;;;;;;13.60;99.90;;;;;;4991926;28;20012;-71
2022/01/01 03:51:01;;;;;;;;;;;13.70;99.90;;;;;;4990038;28;19944;-71
2022/01/01 03:53:27;;;;;;;;;;;13.60;99.90;;;;;;4992831;28;20271;-71
2022/01/01 03:55:54;;;;;;;;;;;13.60;99.90;;;;;;4990098;28;19925;-71
2022/01/01 03:58:21;;;;;;;;;;;13.60;99.90;;;;;;4998201;28;20228;-71
2022/01/01 04:00:48;;;;;;;;;;;13.60;99.90;;;;;;4989839;28;19922;-71
2022/01/01 04:03:17;;;;;;;;;;;13.50;99.90;;;;;;4995492;28;19929;-70
2022/01/01 04:05:44;;;;;;;;;;;13.50;99.90;;;;;;4995727;28;20434;-71
2022/01/01 04:08:11;;;;;;;;;;;14.20;99.90;;;;;;4996264;28;19925;-71
2022/01/01 04:10:38;;;;;;;;;;;13.50;99.90;;;;;;4993455;28;19932;-70
2022/01/01 04:13:05;;;;;;;;;;;13.50;99.90;;;;;;4993433;28;19941;-71
2022/01/01 04:15:33;;;;;;;;;;;13.50;99.90;;;;;;4977836;28;19925;-71
2022/01/01 04:18:02;;;;;;;;;;;13.50;99.90;;;;;;4990382;28;19926;-71
2022/01/01 04:20:30;;;;;;;;;;;13.50;99.90;;;;;;4990314;28;19925;-71
2022/01/01 04:22:58;;;;;;;;;;;13.50;99.90;;;;;;4990943;28;19953;-71
2022/01/01 04:25:25;;;;;;;;;;;13.50;99.90;;;;;;4988001;28;19921;-71
2022/01/01 04:27:53;;;;;;;;;;;13.50;99.90;;;;;;4992289;28;19968;-70
2022/01/01 04:30:21;;;;;;;;;;;13.50;99.90;;;;;;4990833;28;19933;-70
2022/01/01 04:32:48;;;;;;;;;;;13.50;99.90;;;;;;4996479;28;19969;-71
2022/01/01 04:35:15;;;;;;;;;;;13.50;99.90;;;;;;4991531;28;20289;-71
2022/01/01 04:37:43;;;;;;;;;;;13.50;99.90;;;;;;5003565;28;19932;-71
2022/01/01 04:40:10;;;;;;;;;;;13.50;99.90;;;;;;4997954;28;20398;-71
2022/01/01 04:42:37;;;;;;;;;;;13.50;99.90;;;;;;4994991;28;20310;-71
2022/01/01 04:45:04;;;;;;;;;;;13.40;99.90;;;;;;4992787;28;19933;-71
2022/01/01 04:47:31;;;;;;;;;;;13.40;99.90;;;;;;5006749;28;19940;-71
2022/01/01 04:49:57;;;;;;;;;;;13.40;99.90;;;;;;4998559;28;19936;-71
2022/01/01 04:52:24;;;;;;;;;;;13.40;99.90;;;;;;4993497;28;19928;-71
2022/01/01 04:54:52;;;;;;;;;;;13.40;99.90;;;;;;5001396;23;20012;-89
2022/01/01 04:57:19;;;;;;;;;;;13.50;99.90;;;;;;4993608;28;19925;-90
2022/01/01 04:59:46;;;;;;;;;;;13.50;99.90;;;;;;5007159;28;19921;-90
2022/01/01 05:02:13;;;;;;;;;;;13.40;99.90;;;;;;4985761;28;20012;-89
2022/01/01 05:04:40;;;;;;;;;;;13.40;99.90;;;;;;4960077;28;19925;-90
2022/01/01 05:07:07;;;;;;;;;;;13.50;99.90;;;;;;4979535;28;19922;-89
2022/01/01 05:09:34;;;;;;;;;;;13.40;99.90;;;;;;4982463;28;19964;-89
2022/01/01 05:12:02;;;;;;;;;;;13.40;99.90;;;;;;4978580;28;19937;-89
2022/01/01 05:14:30;;;;;;;;;;;13.60;99.90;;;;;;4973562;28;19921;-91
2022/01/01 05:16:57;;;;;;;;;;;13.60;99.90;;;;;;4973840;28;19933;-89
2022/01/01 05:19:24;;;;;;;;;;;13.40;99.90;;;;;;4958528;28;19926;-89
2022/01/01 05:21:55;;;;;;;;;;;13.40;99.90;;;;;;4975767;28;19981;-89
2022/01/01 05:24:22;;;;;;;;;;;14.80;99.90;;;;;;4957824;28;19989;-89
2022/01/01 05:26:49;;;;;;;;;;;13.50;99.90;;;;;;4958250;28;19941;-89
2022/01/01 05:29:17;;;;;;;;;;;13.40;99.90;;;;;;4977030;28;19982;-89
2022/01/01 05:31:44;;;;;;;;;;;13.50;99.90;;;;;;4984186;28;19910;-89
2022/01/01 05:34:11;;;;;;;;;;;13.50;99.90;;;;;;4981580;28;19918;-90
2022/01/01 05:36:37;;;;;;;;;;;13.50;99.90;;;;;;4984816;28;19938;-90
2022/01/01 05:39:04;;;;;;;;;;;13.50;99.90;;;;;;4980674;28;19941;-90
2022/01/01 05:41:31;;;;;;;;;;;13.50;99.90;;;;;;4978807;28;20017;-90
2022/01/01 05:43:58;;;;;;;;;;;13.50;99.90;;;;;;4993739;28;19981;-90
2022/01/01 05:46:29;;;;;;;;;;;13.50;99.90;;;;;;4982603;28;19936;-91
2022/01/01 05:48:56;;;;;;;;;;;13.50;99.90;;;;;;4994890;28;20005;-90
2022/01/01 05:51:23;;;;;;;;;;;13.50;99.90;;;;;;5009408;28;20017;-90
2022/01/01 05:53:50;;;;;;;;;;;13.50;99.90;;;;;;4992345;28;19910;-90
2022/01/01 05:56:17;;;;;;;;;;;13.50;99.90;;;;;;4995191;28;19918;-90
2022/01/01 05:58:43;;;;;;;;;;;13.50;99.90;;;;;;4978467;28;19910;-90
2022/01/01 06:01:10;;;;;;;;;;;13.50;99.90;;;;;;4978485;28;19920;-90
2022/01/01 06:03:38;;;;;;;;;;;13.50;99.90;;;;;;4976459;28;19941;-89
2022/01/01 06:06:05;;;;;;;;;;;13.30;99.90;;;;;;4974907;28;19929;-89
2022/01/01 06:08:32;;;;;;;;;;;13.40;99.90;;;;;;4974086;28;19932;-90
2022/01/01 06:11:00;;;;;;;;;;;13.40;99.90;;;;;;4970956;28;19926;-90
2022/01/01 06:13:27;;;;;;;;;;;13.40;99.90;;;;;;4973047;28;19930;-89
2022/01/01 06:15:54;;;;;;;;;;;13.40;99.90;;;;;;4977731;28;19933;-89
2022/01/01 06:18:21;;;;;;;;;;;13.40;99.90;;;;;;4987268;28;20032;-89
2022/01/01 06:20:49;;;;;;;;;;;13.40;99.90;;;;;;4973850;28;19914;-90
2022/01/01 06:23:16;;;;;;;;;;;13.50;99.90;;;;;;4957671;28;19922;-89
2022/01/01 06:25:42;;;;;;;;;;;13.50;99.90;;;;;;4963014;28;19929;-89
2022/01/01 06:28:09;;;;;;;;;;;13.50;99.90;;;;;;4958785;28;19930;-89
2022/01/01 06:30:36;;;;;;;;;;;13.40;99.90;;;;;;4980977;28;19999;-89
2022/01/01 06:33:10;;;;;;;;;;;13.50;99.90;;;;;;4961997;28;19926;-89
2022/01/01 06:35:37;;;;;;;;;;;13.50;99.90;;;;;;4957493;28;19926;-89
2022/01/01 06:38:05;;;;;;;;;;;13.50;99.90;;;;;;4955932;28;19976;-89
2022/01/01 06:40:32;;;;;;;;;;;13.50;99.90;;;;;;4981177;28;19932;-91
2022/01/01 06:42:59;;;;;;;;;;;13.50;99.90;;;;;;4971645;28;19968;-90
2022/01/01 06:45:26;;;;;;;;;;;13.50;99.90;;;;;;4972185;28;19936;-90
2022/01/01 06:47:53;;;;;;;;;;;13.50;99.90;;;;;;4970278;28;19956;-90
2022/01/01 06:50:19;;;;;;;;;;;13.50;99.90;;;;;;4954958;28;19933;-90
2022/01/01 06:52:47;;;;;;;;;;;13.50;99.90;;;;;;4951096;28;19922;-90
2022/01/01 06:55:15;;;;;;;;;;;13.50;99.90;;;;;;4955153;28;20002;-90
2022/01/01 06:57:42;;;;;;;;;;;13.50;99.90;;;;;;4955542;28;20714;-90
2022/01/01 07:00:09;;;;;;;;;;;13.50;99.90;;;;;;4976378;28;20006;-90
2022/01/01 07:02:38;;;;;;;;;;;13.50;99.90;;;;;;4965685;28;19933;-89
2022/01/01 07:05:05;;;;;;;;;;;13.50;99.90;;;;;;4971125;28;19932;-89
2022/01/01 07:07:31;;;;;;;;;;;13.50;99.90;;;;;;4971205;28;19922;-89
2022/01/01 07:09:58;;;;;;;;;;;13.50;99.90;;;;;;4966185;28;19921;-89
2022/01/01 07:12:26;;;;;;;;;;;13.50;99.90;;;;;;4952747;28;19929;-89
2022/01/01 07:14:53;;;;;;;;;;;13.50;99.90;;;;;;4952920;28;20063;-88
2022/01/01 07:17:20;;;;;;;;;;;13.50;99.90;;;;;;4970002;28;20672;-90
2022/01/01 07:19:46;;;;;;;;;;;13.50;99.90;;;;;;4952638;28;19926;-89
2022/01/01 07:22:13;;;;;;;;;;;13.50;99.90;;;;;;4960520;28;19929;-89
2022/01/01 07:24:40;;;;;;;;;;;13.50;99.90;;;;;;4953994;28;20409;-90
2022/01/01 07:27:07;;;;;;;;;;;13.50;99.90;;;;;;4958930;28;19925;-90
2022/01/01 07:29:35;;;;;;;;;;;13.20;99.90;;;;;;4994703;28;19940;-90
2022/01/01 07:32:02;;;;;;;;;;;13.50;99.90;;;;;;4970077;28;19926;-89
2022/01/01 07:34:30;;;;;;;;;;;13.50;99.90;;;;;;4959930;28;19932;-89
2022/01/01 07:36:56;;;;;;;;;;;13.50;99.90;;;;;;4953891;28;19926;-89
2022/01/01 07:39:24;;;;;;;;;;;13.50;99.90;;;;;;4964795;28;19922;-90
2022/01/01 07:41:51;;;;;;;;;;;13.50;99.90;;;;;;4966589;28;19929;-91
2022/01/01 07:44:19;;;;;;;;;;;13.50;99.90;;;;;;4954830;28;19932;-91
2022/01/01 07:46:49;;;;;;;;;;;13.50;99.90;;;;;;4952051;28;19922;-90
2022/01/01 07:49:15;;;;;;;;;;;13.50;99.90;;;;;;4967099;28;19933;-90
2022/01/01 07:51:42;;;;;;;;;;;13.60;99.90;;;;;;4959568;28;19932;-90
2022/01/01 07:54:09;;;;;;;;;;;13.60;99.90;;;;;;4972432;28;19925;-91
2022/01/01 07:56:36;;;;;;;;;;;13.60;99.90;;;;;;4954139;28;19922;-91
2022/01/01 07:59:02;;;;;;;;;;;13.80;99.90;;;;;;4971647;28;19922;-89
2022/01/01 08:01:29;;;;;;;;;;;13.50;99.90;;;;;;4974564;28;19926;-89
2022/01/01 08:04:01;;;;;;;;;;;13.60;99.90;;;;;;4959611;28;19985;-89
2022/01/01 08:06:29;;;;;;;;;;;13.60;99.90;;;;;;4984223;28;19922;-89
2022/01/01 08:08:56;;;;;;;;;;;13.70;99.90;;;;;;4963459;28;19925;-90
2022/01/01 08:11:24;;;;;;;;;;;13.70;99.90;;;;;;4957547;28;20314;-90
2022/01/01 08:13:51;;;;;;;;;;;13.70;99.90;;;;;;4964394;28;19922;-88
2022/01/01 08:16:18;;;;;;;;;;;13.70;99.90;;;;;;4971261;28;19917;-89
2022/01/01 08:18:45;;;;;;;;;;;13.80;99.90;;;;;;4972275;28;19953;-90
2022/01/01 08:21:14;;;;;;;;;;;13.80;99.90;;;;;;4958291;28;19970;-89
2022/01/01 08:23:41;;;;;;;;;;;13.80;99.90;;;;;;4954664;28;19921;-89
2022/01/01 08:26:08;;;;;;;;;;;13.80;99.90;;;;;;4949793;28;20633;-90
2022/01/01 08:28:36;;;;;;;;;;;13.80;99.90;;;;;;4955733;28;20409;-90
2022/01/01 08:31:02;;;;;;;;;;;13.80;99.90;;;;;;4978102;28;20218;-90
2022/01/01 08:33:30;;;;;;;;;;;13.90;99.90;;;;;;4984770;28;20390;-89
2022/01/01 08:35:57;;;;;;;;;;;13.90;99.90;;;;;;4955250;28;19923;-90
2022/01/01 08:38:25;;;;;;;;;;;13.90;99.90;;;;;;4953670;28;20326;-90
2022/01/01 08:40:52;;;;;;;;;;;13.90;99.90;;;;;;4952907;28;20403;-89
2022/01/01 08:43:19;;;;;;;;;;;13.90;99.90;;;;;;4969669;28;20459;-89
2022/01/01 08:45:46;;;;;;;;;;;14.00;99.90;;;;;;4958371;28;19925;-90
2022/01/01 08:48:12;;;;;;;;;;;13.90;99.90;;;;;;4958642;28;19930;-90
2022/01/01 08:50:39;;;;;;;;;;;13.90;99.90;;;;;;4957948;28;19922;-90
2022/01/01 08:53:06;;;;;;;;;;;13.90;99.90;;;;;;4972236;28;19926;-90
2022/01/01 08:55:34;;;;;;;;;;;13.90;99.90;;;;;;4961606;28;20009;-91
2022/01/01 08:58:01;;;;;;;;;;;13.90;99.90;;;;;;4973903;28;19933;-91
2022/01/01 09:00:29;;;;;;;;;;;13.90;99.90;;;;;;4963004;28;20296;-92
2022/01/01 09:02:56;;;;;;;;;;;14.20;99.90;;;;;;4957380;28;20326;-90
2022/01/01 09:05:24;;;;;;;;;;;14.10;99.90;;;;;;4969008;28;19964;-91
2022/01/01 09:07:51;;;;;;;;;;;14.10;99.90;;;;;;4957887;28;19937;-90
2022/01/01 09:10:19;;;;;;;;;;;14.20;99.90;;;;;;4954184;28;19965;-91
2022/01/01 09:12:49;;;;;;;;;;;14.30;99.90;;;;;;4962018;28;19929;-90
2022/01/01 09:15:18;;;;;;;;;;;14.40;99.90;;;;;;4951382;28;19926;-90
2022/01/01 09:17:44;;;;;;;;;;;14.50;99.90;;;;;;4955901;28;19936;-90
2022/01/01 09:20:11;;;;;;;;;;;14.60;99.90;;;;;;4967857;28;19926;-90
2022/01/01 09:22:38;;;;;;;;;;;14.70;99.90;;;;;;4962617;28;19926;-90
2022/01/01 09:25:05;;;;;;;;;;;15.30;99.90;;;;;;4972498;28;19937;-89
2022/01/01 09:27:32;;;;;;;;;;;15.00;99.90;;;;;;4958705;28;19926;-89
2022/01/01 09:30:00;;;;;;;;;;;15.00;99.90;;;;;;4963681;28;19948;-89
2022/01/01 09:32:27;;;;;;;;;;;15.20;99.90;;;;;;4990545;28;19926;-88
2022/01/01 09:34:55;;;;;;;;;;;15.20;99.90;;;;;;4961983;28;20390;-89
2022/01/01 09:37:24;;;;;;;;;;;15.30;99.90;;;;;;4977579;28;19957;-89
2022/01/01 09:39:50;;;;;;;;;;;15.30;99.90;;;;;;4979546;28;19926;-89
2022/01/01 09:42:18;;;;;;;;;;;15.40;99.90;;;;;;4954970;28;19932;-89
2022/01/01 09:44:46;;;;;;;;;;;15.40;99.90;;;;;;4955128;28;19933;-88
2022/01/01 09:47:14;;;;;;;;;;;15.40;99.90;;;;;;4969343;28;19922;-88
2022/01/01 09:49:41;;;;;;;;;;;15.40;99.90;;;;;;4986800;28;20633;-88
2022/01/01 09:52:09;;;;;;;;;;;15.40;99.90;;;;;;4954833;28;19922;-89
2022/01/01 09:54:36;;;;;;;;;;;15.50;99.90;;;;;;4970644;28;19921;-89
2022/01/01 09:57:03;;;;;;;;;;;15.50;99.90;;;;;;4954837;28;20398;-88
2022/01/01 09:59:29;;;;;;;;;;;15.50;99.90;;;;;;4963687;28;19926;-89
2022/01/01 10:01:56;;;;;;;;;;;15.60;99.90;;;;;;4972737;28;19921;-89
2022/01/01 10:04:24;;;;;;;;;;;15.60;99.90;;;;;;4961409;28;19930;-90
2022/01/01 10:07:01;;;;;;;;;;;15.60;99.90;;;;;;4956635;28;20393;-90
2022/01/01 10:09:30;;;;;;;;;;;15.70;99.90;;;;;;4956794;28;19932;-90
2022/01/01 10:11:57;;;;;;;;;;;15.80;99.90;;;;;;4970302;28;19948;-90
2022/01/01 10:14:33;;;;;;;;;;;15.90;99.90;;;;;;4957715;28;19964;-89
2022/01/01 10:17:00;;;;;;;;;;;15.90;99.90;;;;;;4959031;28;19961;-90
2022/01/01 10:19:32;;;;;;;12.70;4.40;;;16.00;99.90;;;;;;4986987;28;20059;-90
2022/01/01 10:22:03;;;;;;;;;;;16.20;99.90;;;;;;4964914;28;19926;-90
2022/01/01 10:27:42;;;;;;;;;;;16.30;99.90;;;;;;4969750;28;19969;-89
2022/01/01 10:30:01;;;;;;;;;;;16.40;99.90;;;;;;4972593;28;20009;-89
2022/01/01 10:32:28;;;;;;;;;;;16.50;99.90;;;;;;4987226;28;19930;-87
2022/01/01 10:34:56;;;;;;;;;;;16.60;99.90;;;;;;4953782;28;19930;-89
2022/01/01 10:37:27;;;;;;;;;;;16.60;99.90;;;;;;4972962;28;19930;-89
2022/01/01 10:39:55;;;;;;;;;;;16.50;99.90;;;;;;4957107;28;20395;-89
2022/01/01 10:42:22;;;;;;;;;;;16.50;99.90;;;;;;4961700;28;20474;-90
2022/01/01 10:44:51;;;;;;;;;;;16.40;99.90;;;;;;4957561;28;20049;-88
2022/01/01 10:47:21;;;;;;;;;;;16.40;99.90;;;;;;4972085;28;19937;-88
2022/01/01 10:50:04;;;;;;;;;;;16.30;99.90;;;;;;4956713;28;20413;-88
2022/01/01 10:52:34;;;;;;;;;;;16.30;99.90;;;;;;4957267;28;20626;-91
2022/01/01 10:55:02;;;;;;;;;;;16.30;99.90;;;;;;4955738;28;19926;-90
2022/01/01 10:57:33;;;;;;;;;;;16.20;99.90;;;;;;4994775;28;19938;-91
2022/01/01 11:00:17;;;;;;;;;;;16.20;99.90;;;;;;5000296;28;19930;-91
2022/01/01 11:02:44;;;;;;;;;;;16.20;99.90;;;;;;4987083;28;20084;-92
2022/01/01 11:05:12;;;;;;;;;;;16.20;99.90;;;;;;4950459;28;19930;-91
2022/01/01 11:07:50;;;;;;;;;;;16.10;99.90;;;;;;4957594;28;19930;-92
2022/01/01 11:10:17;;;;;;;;;;;16.20;99.90;;;;;;4984559;28;19933;-91
2022/01/01 11:12:45;;;;;;;;;;;16.30;99.90;;;;;;4992465;28;19926;-92
2022/01/01 11:15:12;;;;;;;;;;;16.40;99.90;;;;;;4989904;28;19927;-90
2022/01/01 11:17:41;;;;;;;;;;;16.50;99.90;;;;;;4962550;28;20001;-90
2022/01/01 11:20:08;;;;;;;;;;;16.70;99.90;;;;;;4979317;28;19933;-90
2022/01/01 11:22:38;;;;;;;;;;;16.90;99.90;;;;;;4976574;28;19934;-90
2022/01/01 11:25:06;;;;;;;;;;;17.10;99.90;;;;;;4976768;28;19965;-91
2022/01/01 11:27:33;;;;;;;;;;;16.80;99.90;;;;;;4964301;28;19961;-90
2022/01/01 11:30:03;;;;;;;;;;;17.30;99.90;;;;;;4963559;28;19926;-90
2022/01/01 11:32:39;;;;;;;;;;;17.40;99.90;;;;;;4972953;28;19933;-90
2022/01/01 11:35:09;;;;;;;;;;;17.50;99.90;;;;;;4966255;28;19930;-89
2022/01/01 11:37:45;;;;;;;;;;;17.60;99.90;;;;;;4960219;28;19926;-90
2022/01/01 11:40:16;;;;;;;;;;;17.60;99.90;;;;;;4960848;28;19914;-91
2022/01/01 11:42:49;;;;;;;;;;;17.60;99.90;;;;;;4977156;28;19941;-91
2022/01/01 11:45:34;;;;;;;;;;;17.60;99.90;;;;;;4978289;28;19948;-91
2022/01/01 11:48:35;;;;;;;;;;;17.60;99.90;;;;;;4989918;28;19910;-91
2022/01/01 11:51:21;;;;;;;;;;;17.60;99.90;;;;;;5002334;28;19973;-89
2022/01/01 11:54:05;;;;;;;;;;;17.30;99.90;;;;;;4967544;28;19936;-89
2022/01/01 11:56:48;;;;;;;;;;;17.50;99.90;;;;;;4956170;28;19929;-90
2022/01/01 11:59:20;;;;;;;;;;;17.50;99.90;;;;;;4954577;28;19930;-89
2022/01/01 12:01:47;;;;;;;;;;;17.50;99.90;;;;;;4956143;28;19926;-89
2022/01/01 12:04:22;;;;;;;;;;;17.50;99.90;;;;;;4959217;28;20722;-89
2022/01/01 12:06:52;;;;;;;;;;;17.40;99.90;;;;;;4969577;28;20313;-90
2022/01/01 12:09:19;;;;;;;;;;;17.40;99.90;;;;;;4985737;28;20394;-89
2022/01/01 12:11:50;;;;;;;;;;;17.50;99.90;;;;;;4954842;28;19927;-90
2022/01/01 12:14:23;;;;;;;;;;;17.40;99.90;;;;;;4962991;28;19930;-89
2022/01/01 12:16:50;;;;;;;;;;;17.30;99.90;;;;;;4964385;28;19925;-89
2022/01/01 12:19:22;;;;;;;;;;;17.30;99.90;;;;;;4990602;28;19944;-89
2022/01/01 12:21:49;;;;;;;;;;;17.60;99.90;;;;;;4956387;28;20554;-89
2022/01/01 12:24:21;;;;;;;;;;;17.30;99.90;;;;;;4970436;28;19918;-90
2022/01/01 12:26:53;;;;;;;;;;;17.50;99.90;;;;;;4966728;28;19930;-90
2022/01/01 12:29:25;;;;;;;;;;;17.60;99.90;;;;;;4971212;28;20482;-91
2022/01/01 12:31:55;;;;;;;;;;;17.70;99.90;;;;;;4958648;28;19933;-91
2022/01/01 12:34:26;;;;;;;;;;;17.80;99.90;;;;;;4958309;28;19965;-90
2022/01/01 12:36:53;;;;;;;;;;;17.70;99.90;;;;;;4964431;28;20450;-90
2022/01/01 12:39:19;;;;;;;;;;;17.70;99.90;;;;;;4970646;28;19934;-89
2022/01/01 12:41:46;;;;;;;;;;;17.80;99.90;;;;;;4963158;28;19930;-90
2022/01/01 12:44:18;;;;;;;;;;;17.80;99.90;;;;;;4970223;28;19941;-90
2022/01/01 12:46:47;;;;;;;;;;;17.80;99.90;;;;;;4956283;28;20390;-91
2022/01/01 12:49:14;;;;;;;;;;;17.70;99.90;;;;;;4964117;28;20021;-89
2022/01/01 12:51:41;;;;;;;;;;;17.70;99.90;;;;;;4988084;28;19957;-90
2022/01/01 12:54:09;;;;;;;;;;;17.50;99.90;;;;;;4959205;28;20089;-89
2022/01/01 12:56:39;;;;;;;13.70;4.30;;;17.50;99.90;;;;;;4964620;28;20063;-88
2022/01/01 12:59:09;;;;;;;14.00;4.27;;;17.30;99.90;;;;;;4967228;28;20645;-89
2022/01/01 13:01:40;;;;;;;13.10;4.57;;;17.30;99.90;;;;;;4969949;28;20212;-88
2022/01/01 13:04:13;;;;;;;11.43;3.73;;;17.20;99.90;;;;;;4956405;28;20223;-90
2022/01/01 13:06:42;;;;;;;11.17;3.97;;;17.10;99.90;;;;;;4955248;28;20530;-89
2022/01/01 13:09:11;;;;;;;9.63;4.03;;;17.10;99.90;;;;;;4973272;28;20853;-89
2022/01/01 13:11:39;;;;;;;13.57;4.30;;;17.00;99.90;;;;;;4965683;28;20225;-89
2022/01/01 13:14:08;;;;;;;13.60;4.40;;;17.00;99.90;;;;;;4957332;28;20875;-88
2022/01/01 13:16:36;;;;;;;10.83;3.87;;;17.00;99.90;;;;;;4956603;28;20295;-89
2022/01/01 13:19:04;;;;;;;8.90;4.03;;;16.90;99.90;;;;;;4972743;28;20243;-88
2022/01/01 13:21:33;;;;;;;13.03;4.30;;;16.80;99.90;;;;;;4955815;28;20221;-87
2022/01/01 13:24:00;;;;;;;11.97;4.07;;;16.80;99.90;;;;;;4957406;28;20288;-87
2022/01/01 13:26:28;;;;;;;11.53;4.40;;;16.80;99.90;;;;;;4952478;28;20217;-88
2022/01/01 13:28:55;;;;;;;14.40;4.93;;;16.70;99.90;;;;;;4952686;28;20214;-87
2022/01/01 13:31:23;;;;;;;14.23;4.90;;;16.70;99.90;;;;;;4972089;28;20217;-88
2022/01/01 13:33:51;;;;;;;13.40;4.60;;;16.60;99.90;;;;;;4961558;28;20312;-88
2022/01/01 13:36:35;;;;;;;12.90;4.37;;;16.60;99.90;;;;;;4986416;28;20213;-89
2022/01/01 13:39:07;;;;;;;14.43;4.40;;;16.50;99.90;;;;;;4986475;28;20228;-89
2022/01/01 13:41:36;;;;;;;12.63;4.43;;;16.40;99.90;;;;;;4982970;28;20212;-89
2022/01/01 13:44:21;;;;;;;12.63;4.37;;;16.40;99.90;;;;;;4979350;28;20210;-89
2022/01/01 13:46:49;;;;;;;15.77;4.53;;;16.30;99.90;;;;;;4967215;28;20225;-90
2022/01/01 13:49:17;;;;;;;15.20;4.57;;;16.30;99.90;;;;;;4967918;28;20271;-89
2022/01/01 13:51:55;;;;;;;10.63;3.93;;;16.20;99.90;;;;;;4960506;28;20230;-89
2022/01/01 13:54:24;;;;;;;11.83;4.27;;;16.20;99.90;;;;;;4953736;28;20316;-89
2022/01/01 13:56:56;;;;;;;12.63;4.30;;;16.10;99.90;;;;;;4968486;28;20208;-89
2022/01/01 13:59:26;;;;;;;11.87;4.27;;;16.10;99.90;;;;;;4964651;28;20236;-89
2022/01/01 14:01:53;;;;;;;13.33;4.43;;;16.00;99.90;;;;;;4974215;28;20216;-89
2022/01/01 14:04:23;;;;;;;15.67;4.57;;;15.90;99.90;;;;;;4955525;28;20230;-89
2022/01/01 14:07:06;;;;;;;12.30;4.57;;;15.80;99.90;;;;;;4970575;28;20199;-89
2022/01/01 14:09:33;;;;;;;12.33;4.23;;;15.70;99.90;;;;;;4973803;28;20703;-89
2022/01/01 14:12:00;;;;;;;16.40;4.77;;;15.60;99.90;;;;;;4957936;28;20212;-90
2022/01/01 14:14:31;;;;;;;11.37;3.97;;;15.60;99.90;;;;;;4963929;28;20256;-89
2022/01/01 14:16:59;;;;;;;13.20;4.57;;;15.50;99.90;;;;;;4981817;28;20220;-89